sensor_id;sensor_type;location;lat;lon;timestamp;temperature;humidity
21184;DHT22;18176;49.502;11.754;2023-05-10T00:01:53;13.40;99.90
21184;DHT22;18176;49.502;11.754;2023-05-10T00:05:54;13.40;99.90
21184;DHT22;18176;49.502;11.754;2023-05-10T00:09:55;13.40;99.90
21184;DHT22;18176;49.502;11.754;2023-05-10T00:13:57;13.30;99.90
21184;DHT22;18176;49.502;11.754;2023-05-10T00:17:58;13.30;99.90
21184;DHT22;18176;49.502;11.754;2023-05-10T00:21:58;13.20;99.90
21184;DHT22;18176;49.502;11.754;2023-05-10T00:25:59;13.20;99.90
21184;DHT22;18176;49.502;11.754;2023-05-10T00:30:03;13.10;99.90
21184;DHT22;18176;49.502;11.754;2023-05-10T00:34:05;13.10;99.90
21184;DHT22;18176;49.502;11.754;2023-05-10T00:38:05;13.10;99.90
21184;DHT22;18176;49.502;11.754;2023-05-10T00:42:06;13.00;99.90
21184;DHT22;18176;49.502;11.754;2023-05-10T00:46:09;13.00;99.90
21184;DHT22;18176;49.502;11.754;2023-05-10T00:50:10;12.90;99.90
21184;DHT22;18176;49.502;11.754;2023-05-10T00:54:12;12.90;99.90
21184;DHT22;18176;49.502;11.754;2023-05-10T00:58:14;13.00;99.90
21184;DHT22;18176;49.502;11.754;2023-05-10T01:02:17;13.00;99.90
21184;DHT22;18176;49.502;11.754;2023-05-10T01:06:18;13.00;99.90
21184;DHT22;18176;49.502;11.754;2023-05-10T01:10:18;13.00;99.90
21184;DHT22;18176;49.502;11.754;2023-05-10T01:14:19;13.00;99.90
21184;DHT22;18176;49.502;11.754;2023-05-10T01:18:23;13.00;99.90
21184;DHT22;18176;49.502;11.754;2023-05-10T01:22:49;13.00;99.90
21184;DHT22;18176;49.502;11.754;2023-05-10T01:27:20;13.00;99.90
21184;DHT22;18176;49.502;11.754;2023-05-10T01:36:26;13.00;99.90
21184;DHT22;18176;49.502;11.754;2023-05-10T01:40:37;13.00;99.90
21184;DHT22;18176;49.502;11.754;2023-05-10T01:44:45;12.90;99.90
21184;DHT22;18176;49.502;11.754;2023-05-10T01:48:57;12.90;99.90
21184;DHT22;18176;49.502;11.754;2023-05-10T01:53:01;12.90;99.90
21184;DHT22;18176;49.502;11.754;2023-05-10T01:57:07;12.90;99.90
21184;DHT22;18176;49.502;11.754;2023-05-10T02:01:11;12.90;99.90
21184;DHT22;18176;49.502;11.754;2023-05-10T02:05:17;12.90;99.90
21184;DHT22;18176;49.502;11.754;2023-05-10T02:09:20;12.90;99.90
21184;DHT22;18176;49.502;11.754;2023-05-10T02:13:24;12.80;99.90
21184;DHT22;18176;49.502;11.754;2023-05-10T02:17:27;12.60;99.90
21184;DHT22;18176;49.502;11.754;2023-05-10T02:21:33;12.40;99.90
21184;DHT22;18176;49.502;11.754;2023-05-10T02:25:36;12.20;99.90
21184;DHT22;18176;49.502;11.754;2023-05-10T02:29:37;12.10;99.90
21184;DHT22;18176;49.502;11.754;2023-05-10T02:33:39;12.10;99.90
21184;DHT22;18176;49.502;11.754;2023-05-10T02:37:45;12.10;99.90
21184;DHT22;18176;49.502;11.754;2023-05-10T02:41:47;12.20;99.90
21184;DHT22;18176;49.502;11.754;2023-05-10T02:45:49;12.20;99.90
21184;DHT22;18176;49.502;11.754;2023-05-10T02:49:50;12.20;99.90
21184;DHT22;18176;49.502;11.754;2023-05-10T02:53:54;12.30;99.90
21184;DHT22;18176;49.502;11.754;2023-05-10T02:57:59;12.30;99.90
21184;DHT22;18176;49.502;11.754;2023-05-10T03:02:01;12.40;99.90
21184;DHT22;18176;49.502;11.754;2023-05-10T03:06:02;12.40;99.90
21184;DHT22;18176;49.502;11.754;2023-05-10T03:10:06;12.40;99.90
21184;DHT22;18176;49.502;11.754;2023-05-10T03:14:16;12.40;99.90
21184;DHT22;18176;49.502;11.754;2023-05-10T03:18:29;12.40;99.90
21184;DHT22;18176;49.502;11.754;2023-05-10T03:22:39;12.50;99.90
21184;DHT22;18176;49.502;11.754;2023-05-10T03:26:58;12.50;99.90
21184;DHT22;18176;49.502;11.754;2023-05-10T03:31:02;12.40;99.90
21184;DHT22;18176;49.502;11.754;2023-05-10T03:35:06;12.30;99.90
21184;DHT22;18176;49.502;11.754;2023-05-10T03:39:07;12.20;99.90
21184;DHT22;18176;49.502;11.754;2023-05-10T03:43:10;12.00;99.90
21184;DHT22;18176;49.502;11.754;2023-05-10T03:47:11;11.80;99.90
21184;DHT22;18176;49.502;11.754;2023-05-10T03:51:12;11.60;99.90
21184;DHT22;18176;49.502;11.754;2023-05-10T03:55:13;11.50;99.90
21184;DHT22;18176;49.502;11.754;2023-05-10T03:59:16;11.40;99.90
21184;DHT22;18176;49.502;11.754;2023-05-10T04:03:16;11.30;99.90
21184;DHT22;18176;49.502;11.754;2023-05-10T04:07:17;11.20;99.90
21184;DHT22;18176;49.502;11.754;2023-05-10T04:11:17;11.20;99.90
21184;DHT22;18176;49.502;11.754;2023-05-10T04:15:21;11.10;99.90
21184;DHT22;18176;49.502;11.754;2023-05-10T04:19:22;11.10;99.90
21184;DHT22;18176;49.502;11.754;2023-05-10T04:23:22;11.00;99.90
21184;DHT22;18176;49.502;11.754;2023-05-10T04:27:23;11.00;99.90
21184;DHT22;18176;49.502;11.754;2023-05-10T04:31:26;10.90;99.90
21184;DHT22;18176;49.502;11.754;2023-05-10T04:35:26;10.80;99.90
21184;DHT22;18176;49.502;11.754;2023-05-10T04:39:27;10.80;99.90
21184;DHT22;18176;49.502;11.754;2023-05-10T04:43:27;10.80;99.90
21184;DHT22;18176;49.502;11.754;2023-05-10T04:47:30;10.80;99.90
21184;DHT22;18176;49.502;11.754;2023-05-10T04:51:30;10.70;99.90
21184;DHT22;18176;49.502;11.754;2023-05-10T04:55:31;10.60;99.90
21184;DHT22;18176;49.502;11.754;2023-05-10T04:59:31;10.60;99.90
21184;DHT22;18176;49.502;11.754;2023-05-10T05:03:34;10.60;99.90
21184;DHT22;18176;49.502;11.754;2023-05-10T05:07:35;10.70;99.90
21184;DHT22;18176;49.502;11.754;2023-05-10T05:11:35;10.70;99.90
21184;DHT22;18176;49.502;11.754;2023-05-10T05:15:36;10.80;99.90
21184;DHT22;18176;49.502;11.754;2023-05-10T05:19:39;10.90;99.90
21184;DHT22;18176;49.502;11.754;2023-05-10T05:23:40;10.90;99.90
21184;DHT22;18176;49.502;11.754;2023-05-10T05:27:40;11.00;99.90
21184;DHT22;18176;49.502;11.754;2023-05-10T05:31:40;11.00;99.90
21184;DHT22;18176;49.502;11.754;2023-05-10T05:35:43;11.00;99.90
21184;DHT22;18176;49.502;11.754;2023-05-10T05:39:48;11.10;99.90
21184;DHT22;18176;49.502;11.754;2023-05-10T05:43:48;11.10;99.90
21184;DHT22;18176;49.502;11.754;2023-05-10T05:47:48;11.20;99.90
21184;DHT22;18176;49.502;11.754;2023-05-10T05:51:51;11.30;99.90
21184;DHT22;18176;49.502;11.754;2023-05-10T05:55:52;11.50;99.90
21184;DHT22;18176;49.502;11.754;2023-05-10T05:59:54;11.60;99.90
21184;DHT22;18176;49.502;11.754;2023-05-10T06:03:54;11.70;99.90
21184;DHT22;18176;49.502;11.754;2023-05-10T06:07:59;11.70;99.90
21184;DHT22;18176;49.502;11.754;2023-05-10T06:12:00;11.80;99.90
21184;DHT22;18176;49.502;11.754;2023-05-10T06:16:00;11.90;99.90
21184;DHT22;18176;49.502;11.754;2023-05-10T06:20:00;11.90;99.90
21184;DHT22;18176;49.502;11.754;2023-05-10T06:24:04;12.00;99.90
21184;DHT22;18176;49.502;11.754;2023-05-10T06:28:05;12.10;99.90
21184;DHT22;18176;49.502;11.754;2023-05-10T06:32:05;12.10;99.90
21184;DHT22;18176;49.502;11.754;2023-05-10T06:36:06;12.10;99.90
21184;DHT22;18176;49.502;11.754;2023-05-10T06:40:10;12.20;99.90
21184;DHT22;18176;49.502;11.754;2023-05-10T06:44:11;12.30;99.90
21184;DHT22;18176;49.502;11.754;2023-05-10T06:48:12;12.30;99.90
21184;DHT22;18176;49.502;11.754;2023-05-10T06:52:12;12.40;99.90
21184;DHT22;18176;49.502;11.754;2023-05-10T06:56:15;12.50;99.90
21184;DHT22;18176;49.502;11.754;2023-05-10T07:00:19;12.60;99.90
21184;DHT22;18176;49.502;11.754;2023-05-10T07:04:19;12.70;99.90
21184;DHT22;18176;49.502;11.754;2023-05-10T07:08:20;12.90;99.90
21184;DHT22;18176;49.502;11.754;2023-05-10T07:12:22;13.30;99.90
21184;DHT22;18176;49.502;11.754;2023-05-10T07:16:23;13.50;99.90
21184;DHT22;18176;49.502;11.754;2023-05-10T07:20:23;13.80;99.90
21184;DHT22;18176;49.502;11.754;2023-05-10T07:24:24;13.90;99.90
21184;DHT22;18176;49.502;11.754;2023-05-10T07:28:27;13.90;99.90
21184;DHT22;18176;49.502;11.754;2023-05-10T07:32:27;14.00;99.90
21184;DHT22;18176;49.502;11.754;2023-05-10T07:36:27;14.10;99.90
21184;DHT22;18176;49.502;11.754;2023-05-10T07:40:28;14.00;99.90
21184;DHT22;18176;49.502;11.754;2023-05-10T07:44:31;13.80;99.90
21184;DHT22;18176;49.502;11.754;2023-05-10T07:48:31;13.60;99.90
21184;DHT22;18176;49.502;11.754;2023-05-10T07:52:31;13.60;99.90
21184;DHT22;18176;49.502;11.754;2023-05-10T07:56:32;13.80;99.90
21184;DHT22;18176;49.502;11.754;2023-05-10T08:00:35;13.90;99.90
21184;DHT22;18176;49.502;11.754;2023-05-10T08:04:36;13.90;99.90
21184;DHT22;18176;49.502;11.754;2023-05-10T08:08:37;13.90;99.90
21184;DHT22;18176;49.502;11.754;2023-05-10T08:12:37;13.90;99.90
21184;DHT22;18176;49.502;11.754;2023-05-10T08:16:40;13.90;99.90
21184;DHT22;18176;49.502;11.754;2023-05-10T08:20:41;13.80;99.90
21184;DHT22;18176;49.502;11.754;2023-05-10T08:24:41;14.00;99.90
21184;DHT22;18176;49.502;11.754;2023-05-10T08:28:43;14.80;99.90
21184;DHT22;18176;49.502;11.754;2023-05-10T08:32:46;15.60;99.90
21184;DHT22;18176;49.502;11.754;2023-05-10T08:36:46;16.50;99.90
21184;DHT22;18176;49.502;11.754;2023-05-10T08:40:49;17.10;99.90
21184;DHT22;18176;49.502;11.754;2023-05-10T08:44:54;17.40;99.90
21184;DHT22;18176;49.502;11.754;2023-05-10T08:49:02;17.10;99.90
21184;DHT22;18176;49.502;11.754;2023-05-10T08:53:06;16.60;99.90
21184;DHT22;18176;49.502;11.754;2023-05-10T08:57:10;16.00;99.90
21184;DHT22;18176;49.502;11.754;2023-05-10T09:01:11;15.40;99.90
21184;DHT22;18176;49.502;11.754;2023-05-10T09:05:16;14.70;99.90
21184;DHT22;18176;49.502;11.754;2023-05-10T09:09:17;14.40;99.90
21184;DHT22;18176;49.502;11.754;2023-05-10T09:13:18;14.30;99.90
21184;DHT22;18176;49.502;11.754;2023-05-10T09:17:22;14.50;99.90
21184;DHT22;18176;49.502;11.754;2023-05-10T09:21:27;15.10;99.90
21184;DHT22;18176;49.502;11.754;2023-05-10T09:25:27;15.60;99.90
21184;DHT22;18176;49.502;11.754;2023-05-10T09:29:39;15.70;99.90
21184;DHT22;18176;49.502;11.754;2023-05-10T09:33:44;15.70;99.90
21184;DHT22;18176;49.502;11.754;2023-05-10T09:37:49;15.50;99.90
21184;DHT22;18176;49.502;11.754;2023-05-10T09:41:50;15.30;99.90
21184;DHT22;18176;49.502;11.754;2023-05-10T09:45:51;15.40;99.90
21184;DHT22;18176;49.502;11.754;2023-05-10T09:49:52;15.50;99.90
21184;DHT22;18176;49.502;11.754;2023-05-10T09:54:14;15.90;99.90
21184;DHT22;18176;49.502;11.754;2023-05-10T09:58:15;16.40;99.90
21184;DHT22;18176;49.502;11.754;2023-05-10T10:02:15;17.20;99.90
21184;DHT22;18176;49.502;11.754;2023-05-10T10:06:19;18.10;99.90
21184;DHT22;18176;49.502;11.754;2023-05-10T10:10:29;18.80;99.90
21184;DHT22;18176;49.502;11.754;2023-05-10T10:14:31;18.40;99.90
21184;DHT22;18176;49.502;11.754;2023-05-10T10:18:32;17.70;99.90
21184;DHT22;18176;49.502;11.754;2023-05-10T10:22:37;16.80;99.90
21184;DHT22;18176;49.502;11.754;2023-05-10T10:26:40;16.60;99.90
21184;DHT22;18176;49.502;11.754;2023-05-10T10:30:43;17.10;99.90
21184;DHT22;18176;49.502;11.754;2023-05-10T10:34:47;18.30;99.90
21184;DHT22;18176;49.502;11.754;2023-05-10T10:38:58;18.80;99.90
21184;DHT22;18176;49.502;11.754;2023-05-10T10:43:22;19.20;99.90
21184;DHT22;18176;49.502;11.754;2023-05-10T10:47:24;19.30;99.90
21184;DHT22;18176;49.502;11.754;2023-05-10T10:51:30;18.90;99.90
21184;DHT22;18176;49.502;11.754;2023-05-10T10:55:45;18.90;99.90
21184;DHT22;18176;49.502;11.754;2023-05-10T10:59:49;18.20;99.90
21184;DHT22;18176;49.502;11.754;2023-05-10T11:04:17;17.50;99.90
21184;DHT22;18176;49.502;11.754;2023-05-10T11:08:20;16.70;99.90
21184;DHT22;18176;49.502;11.754;2023-05-10T11:12:26;15.80;99.90
21184;DHT22;18176;49.502;11.754;2023-05-10T11:16:41;15.00;99.90
21184;DHT22;18176;49.502;11.754;2023-05-10T11:20:42;14.50;99.90
21184;DHT22;18176;49.502;11.754;2023-05-10T11:24:56;14.30;99.90
21184;DHT22;18176;49.502;11.754;2023-05-10T11:28:58;14.20;99.90
21184;DHT22;18176;49.502;11.754;2023-05-10T11:33:04;14.50;99.90
21184;DHT22;18176;49.502;11.754;2023-05-10T11:37:05;14.70;99.90
21184;DHT22;18176;49.502;11.754;2023-05-10T11:41:05;15.10;99.90
21184;DHT22;18176;49.502;11.754;2023-05-10T11:45:09;15.60;99.90
21184;DHT22;18176;49.502;11.754;2023-05-10T11:49:12;15.80;99.90
21184;DHT22;18176;49.502;11.754;2023-05-10T11:53:13;16.30;99.90
21184;DHT22;18176;49.502;11.754;2023-05-10T11:57:13;16.90;99.90
21184;DHT22;18176;49.502;11.754;2023-05-10T12:01:13;17.30;99.90
21184;DHT22;18176;49.502;11.754;2023-05-10T12:05:17;17.20;99.90
21184;DHT22;18176;49.502;11.754;2023-05-10T12:09:17;17.20;99.90
21184;DHT22;18176;49.502;11.754;2023-05-10T12:13:31;17.50;99.90
21184;DHT22;18176;49.502;11.754;2023-05-10T12:17:32;17.30;99.90
21184;DHT22;18176;49.502;11.754;2023-05-10T12:21:36;17.00;99.90
21184;DHT22;18176;49.502;11.754;2023-05-10T12:25:38;16.50;99.90
21184;DHT22;18176;49.502;11.754;2023-05-10T12:29:41;16.40;99.90
21184;DHT22;18176;49.502;11.754;2023-05-10T12:33:44;16.20;99.90
21184;DHT22;18176;49.502;11.754;2023-05-10T12:37:51;16.10;99.90
21184;DHT22;18176;49.502;11.754;2023-05-10T12:41:51;16.30;99.90
21184;DHT22;18176;49.502;11.754;2023-05-10T12:45:52;16.60;99.90
21184;DHT22;18176;49.502;11.754;2023-05-10T12:49:52;16.80;99.90
21184;DHT22;18176;49.502;11.754;2023-05-10T12:53:55;17.10;99.90
21184;DHT22;18176;49.502;11.754;2023-05-10T12:57:56;17.60;99.90
21184;DHT22;18176;49.502;11.754;2023-05-10T13:01:57;18.30;99.90
21184;DHT22;18176;49.502;11.754;2023-05-10T13:05:57;18.70;99.90
21184;DHT22;18176;49.502;11.754;2023-05-10T13:10:00;18.20;99.90
21184;DHT22;18176;49.502;11.754;2023-05-10T13:14:01;17.70;99.90
21184;DHT22;18176;49.502;11.754;2023-05-10T13:18:03;17.30;99.90
21184;DHT22;18176;49.502;11.754;2023-05-10T13:22:04;16.70;99.90
21184;DHT22;18176;49.502;11.754;2023-05-10T13:26:07;16.30;99.90
21184;DHT22;18176;49.502;11.754;2023-05-10T13:30:08;16.10;99.90
21184;DHT22;18176;49.502;11.754;2023-05-10T13:34:09;15.70;99.90
21184;DHT22;18176;49.502;11.754;2023-05-10T13:38:10;15.50;99.90
21184;DHT22;18176;49.502;11.754;2023-05-10T13:42:13;15.30;99.90
21184;DHT22;18176;49.502;11.754;2023-05-10T13:46:14;15.20;99.90
21184;DHT22;18176;49.502;11.754;2023-05-10T13:50:15;15.20;99.90
21184;DHT22;18176;49.502;11.754;2023-05-10T13:54:15;15.30;99.90
21184;DHT22;18176;49.502;11.754;2023-05-10T13:58:20;15.50;99.90
21184;DHT22;18176;49.502;11.754;2023-05-10T14:02:21;15.60;99.90
21184;DHT22;18176;49.502;11.754;2023-05-10T14:06:22;15.40;99.90
21184;DHT22;18176;49.502;11.754;2023-05-10T14:10:24;15.40;99.90
21184;DHT22;18176;49.502;11.754;2023-05-10T14:14:26;15.50;99.90
21184;DHT22;18176;49.502;11.754;2023-05-10T14:18:27;15.60;99.90
21184;DHT22;18176;49.502;11.754;2023-05-10T14:22:27;15.50;99.90
21184;DHT22;18176;49.502;11.754;2023-05-10T14:26:27;15.50;99.90
21184;DHT22;18176;49.502;11.754;2023-05-10T14:30:31;15.50;99.90
21184;DHT22;18176;49.502;11.754;2023-05-10T14:34:32;15.70;99.90
21184;DHT22;18176;49.502;11.754;2023-05-10T14:38:32;15.80;99.90
21184;DHT22;18176;49.502;11.754;2023-05-10T14:42:33;15.70;99.90
21184;DHT22;18176;49.502;11.754;2023-05-10T14:46:36;15.80;99.90
21184;DHT22;18176;49.502;11.754;2023-05-10T14:50:36;15.80;99.90
21184;DHT22;18176;49.502;11.754;2023-05-10T14:54:39;15.90;99.90
21184;DHT22;18176;49.502;11.754;2023-05-10T14:58:40;15.90;99.90
21184;DHT22;18176;49.502;11.754;2023-05-10T15:02:42;15.80;99.90
21184;DHT22;18176;49.502;11.754;2023-05-10T15:06:43;15.70;99.90
21184;DHT22;18176;49.502;11.754;2023-05-10T15:10:44;15.30;99.90
21184;DHT22;18176;49.502;11.754;2023-05-10T15:14:44;15.10;99.90
21184;DHT22;18176;49.502;11.754;2023-05-10T15:18:47;14.90;99.90
21184;DHT22;18176;49.502;11.754;2023-05-10T15:22:47;15.10;99.90
21184;DHT22;18176;49.502;11.754;2023-05-10T15:26:48;15.10;99.90
21184;DHT22;18176;49.502;11.754;2023-05-10T15:30:48;14.80;99.90
21184;DHT22;18176;49.502;11.754;2023-05-10T15:34:52;14.60;99.90
21184;DHT22;18176;49.502;11.754;2023-05-10T15:38:53;14.50;99.90
21184;DHT22;18176;49.502;11.754;2023-05-10T15:42:53;14.50;99.90
21184;DHT22;18176;49.502;11.754;2023-05-10T15:46:54;14.50;99.90
21184;DHT22;18176;49.502;11.754;2023-05-10T15:50:58;14.60;99.90
21184;DHT22;18176;49.502;11.754;2023-05-10T15:54:58;14.70;99.90
21184;DHT22;18176;49.502;11.754;2023-05-10T15:59:09;14.60;99.90
21184;DHT22;18176;49.502;11.754;2023-05-10T16:03:10;14.40;99.90
21184;DHT22;18176;49.502;11.754;2023-05-10T16:07:13;14.20;99.90
21184;DHT22;18176;49.502;11.754;2023-05-10T16:11:13;14.00;99.90
21184;DHT22;18176;49.502;11.754;2023-05-10T16:15:13;13.80;99.90
21184;DHT22;18176;49.502;11.754;2023-05-10T16:19:14;13.70;99.90
21184;DHT22;18176;49.502;11.754;2023-05-10T16:23:17;13.60;99.90
21184;DHT22;18176;49.502;11.754;2023-05-10T16:27:18;13.40;99.90
21184;DHT22;18176;49.502;11.754;2023-05-10T16:31:19;13.20;99.90
21184;DHT22;18176;49.502;11.754;2023-05-10T16:35:19;13.00;99.90
21184;DHT22;18176;49.502;11.754;2023-05-10T16:39:22;12.70;99.90
21184;DHT22;18176;49.502;11.754;2023-05-10T16:43:23;12.50;99.90
21184;DHT22;18176;49.502;11.754;2023-05-10T16:47:23;12.40;99.90
21184;DHT22;18176;49.502;11.754;2023-05-10T16:51:23;12.40;99.90
21184;DHT22;18176;49.502;11.754;2023-05-10T16:55:26;12.30;99.90
21184;DHT22;18176;49.502;11.754;2023-05-10T16:59:27;12.30;99.90
21184;DHT22;18176;49.502;11.754;2023-05-10T17:03:27;12.20;99.90
21184;DHT22;18176;49.502;11.754;2023-05-10T17:07:28;12.00;99.90
21184;DHT22;18176;49.502;11.754;2023-05-10T17:11:31;11.90;99.90
21184;DHT22;18176;49.502;11.754;2023-05-10T17:15:31;11.80;99.90
21184;DHT22;18176;49.502;11.754;2023-05-10T17:19:32;11.90;99.90
21184;DHT22;18176;49.502;11.754;2023-05-10T17:23:32;11.90;99.90
21184;DHT22;18176;49.502;11.754;2023-05-10T17:27:35;11.90;99.90
21184;DHT22;18176;49.502;11.754;2023-05-10T17:31:35;11.90;99.90
21184;DHT22;18176;49.502;11.754;2023-05-10T17:35:36;11.90;99.90
21184;DHT22;18176;49.502;11.754;2023-05-10T17:39:36;11.90;99.90
21184;DHT22;18176;49.502;11.754;2023-05-10T17:43:39;11.90;99.90
21184;DHT22;18176;49.502;11.754;2023-05-10T17:47:40;11.90;99.90
21184;DHT22;18176;49.502;11.754;2023-05-10T17:51:41;11.80;99.90
21184;DHT22;18176;49.502;11.754;2023-05-10T17:55:44;11.80;99.90
21184;DHT22;18176;49.502;11.754;2023-05-10T17:59:47;11.80;99.90
21184;DHT22;18176;49.502;11.754;2023-05-10T18:03:48;11.90;99.90
21184;DHT22;18176;49.502;11.754;2023-05-10T18:07:48;11.80;99.90
21184;DHT22;18176;49.502;11.754;2023-05-10T18:11:49;11.80;99.90
21184;DHT22;18176;49.502;11.754;2023-05-10T18:15:52;11.70;99.90
21184;DHT22;18176;49.502;11.754;2023-05-10T18:19:52;11.70;99.90
21184;DHT22;18176;49.502;11.754;2023-05-10T18:23:53;11.60;99.90
21184;DHT22;18176;49.502;11.754;2023-05-10T18:27:53;11.50;99.90
21184;DHT22;18176;49.502;11.754;2023-05-10T18:31:56;11.50;99.90
21184;DHT22;18176;49.502;11.754;2023-05-10T18:35:57;11.50;99.90
21184;DHT22;18176;49.502;11.754;2023-05-10T18:39:58;11.50;99.90
21184;DHT22;18176;49.502;11.754;2023-05-10T18:44:00;11.40;99.90
21184;DHT22;18176;49.502;11.754;2023-05-10T18:48:04;11.40;99.90
21184;DHT22;18176;49.502;11.754;2023-05-10T18:52:05;11.40;99.90
21184;DHT22;18176;49.502;11.754;2023-05-10T18:56:05;11.40;99.90
21184;DHT22;18176;49.502;11.754;2023-05-10T19:00:07;11.40;99.90
21184;DHT22;18176;49.502;11.754;2023-05-10T19:04:11;11.40;99.90
21184;DHT22;18176;49.502;11.754;2023-05-10T19:08:12;11.40;99.90
21184;DHT22;18176;49.502;11.754;2023-05-10T19:12:12;11.40;99.90
21184;DHT22;18176;49.502;11.754;2023-05-10T19:16:14;11.40;99.90
21184;DHT22;18176;49.502;11.754;2023-05-10T19:20:19;11.40;99.90
21184;DHT22;18176;49.502;11.754;2023-05-10T19:24:20;11.40;99.90
21184;DHT22;18176;49.502;11.754;2023-05-10T19:28:22;11.30;99.90
21184;DHT22;18176;49.502;11.754;2023-05-10T19:32:22;11.30;99.90
21184;DHT22;18176;49.502;11.754;2023-05-10T19:36:25;11.30;99.90
21184;DHT22;18176;49.502;11.754;2023-05-10T19:40:25;11.40;99.90
21184;DHT22;18176;49.502;11.754;2023-05-10T19:44:26;11.40;99.90
21184;DHT22;18176;49.502;11.754;2023-05-10T19:48:27;11.40;99.90
21184;DHT22;18176;49.502;11.754;2023-05-10T19:52:30;11.40;99.90
21184;DHT22;18176;49.502;11.754;2023-05-10T19:56:30;11.40;99.90
21184;DHT22;18176;49.502;11.754;2023-05-10T20:00:31;11.50;99.90
21184;DHT22;18176;49.502;11.754;2023-05-10T20:04:32;11.50;99.90
21184;DHT22;18176;49.502;11.754;2023-05-10T20:08:35;11.40;99.90
21184;DHT22;18176;49.502;11.754;2023-05-10T20:12:35;11.40;99.90
21184;DHT22;18176;49.502;11.754;2023-05-10T20:16:35;11.40;99.90
21184;DHT22;18176;49.502;11.754;2023-05-10T20:20:36;11.40;99.90
21184;DHT22;18176;49.502;11.754;2023-05-10T20:24:39;11.40;99.90
21184;DHT22;18176;49.502;11.754;2023-05-10T20:28:41;11.50;99.90
21184;DHT22;18176;49.502;11.754;2023-05-10T20:32:43;11.40;99.90
21184;DHT22;18176;49.502;11.754;2023-05-10T20:36:43;11.40;99.90
21184;DHT22;18176;49.502;11.754;2023-05-10T20:40:46;11.40;99.90
21184;DHT22;18176;49.502;11.754;2023-05-10T20:44:47;11.40;99.90
21184;DHT22;18176;49.502;11.754;2023-05-10T20:48:47;11.40;99.90
21184;DHT22;18176;49.502;11.754;2023-05-10T20:52:48;11.30;99.90
21184;DHT22;18176;49.502;11.754;2023-05-10T20:56:51;11.30;99.90
21184;DHT22;18176;49.502;11.754;2023-05-10T21:00:52;11.30;99.90
21184;DHT22;18176;49.502;11.754;2023-05-10T21:04:52;11.30;99.90
21184;DHT22;18176;49.502;11.754;2023-05-10T21:08:54;11.30;99.90
21184;DHT22;18176;49.502;11.754;2023-05-10T21:12:56;11.40;99.90
21184;DHT22;18176;49.502;11.754;2023-05-10T21:16:57;11.40;99.90
21184;DHT22;18176;49.502;11.754;2023-05-10T21:20:57;11.30;99.90
21184;DHT22;18176;49.502;11.754;2023-05-10T21:24:58;11.30;99.90
21184;DHT22;18176;49.502;11.754;2023-05-10T21:29:00;11.30;99.90
21184;DHT22;18176;49.502;11.754;2023-05-10T21:33:01;11.30;99.90
21184;DHT22;18176;49.502;11.754;2023-05-10T21:37:01;11.30;99.90
21184;DHT22;18176;49.502;11.754;2023-05-10T21:41:05;11.30;99.90
21184;DHT22;18176;49.502;11.754;2023-05-10T21:45:09;11.30;99.90
21184;DHT22;18176;49.502;11.754;2023-05-10T21:49:10;11.30;99.90
21184;DHT22;18176;49.502;11.754;2023-05-10T21:53:10;11.30;99.90
21184;DHT22;18176;49.502;11.754;2023-05-10T21:57:11;11.30;99.90
21184;DHT22;18176;49.502;11.754;2023-05-10T22:01:13;11.30;99.90
21184;DHT22;18176;49.502;11.754;2023-05-10T22:05:14;11.30;99.90
21184;DHT22;18176;49.502;11.754;2023-05-10T22:09:16;11.30;99.90
21184;DHT22;18176;49.502;11.754;2023-05-10T22:13:17;11.30;99.90
21184;DHT22;18176;49.502;11.754;2023-05-10T22:17:20;11.20;99.90
21184;DHT22;18176;49.502;11.754;2023-05-10T22:21:21;11.20;99.90
21184;DHT22;18176;49.502;11.754;2023-05-10T22:25:21;11.20;99.90
21184;DHT22;18176;49.502;11.754;2023-05-10T22:29:22;11.20;99.90
21184;DHT22;18176;49.502;11.754;2023-05-10T22:33:25;11.20;99.90
21184;DHT22;18176;49.502;11.754;2023-05-10T22:37:25;11.20;99.90
21184;DHT22;18176;49.502;11.754;2023-05-10T22:41:25;11.20;99.90
21184;DHT22;18176;49.502;11.754;2023-05-10T22:45:25;11.20;99.90
21184;DHT22;18176;49.502;11.754;2023-05-10T22:49:29;11.20;99.90
21184;DHT22;18176;49.502;11.754;2023-05-10T22:53:29;11.20;99.90
21184;DHT22;18176;49.502;11.754;2023-05-10T22:57:30;11.20;99.90
21184;DHT22;18176;49.502;11.754;2023-05-10T23:01:30;11.20;99.90
21184;DHT22;18176;49.502;11.754;2023-05-10T23:05:33;11.10;99.90
21184;DHT22;18176;49.502;11.754;2023-05-10T23:09:33;11.20;99.90
21184;DHT22;18176;49.502;11.754;2023-05-10T23:13:33;11.10;99.90
21184;DHT22;18176;49.502;11.754;2023-05-10T23:17:33;11.20;99.90
21184;DHT22;18176;49.502;11.754;2023-05-10T23:21:36;11.20;99.90
21184;DHT22;18176;49.502;11.754;2023-05-10T23:25:37;11.10;99.90
21184;DHT22;18176;49.502;11.754;2023-05-10T23:29:37;11.10;99.90
21184;DHT22;18176;49.502;11.754;2023-05-10T23:33:37;11.10;99.90
21184;DHT22;18176;49.502;11.754;2023-05-10T23:37:41;11.10;99.90
21184;DHT22;18176;49.502;11.754;2023-05-10T23:41:41;11.10;99.90
21184;DHT22;18176;49.502;11.754;2023-05-10T23:45:42;11.20;99.90
21184;DHT22;18176;49.502;11.754;2023-05-10T23:49:42;11.10;99.90
21184;DHT22;18176;49.502;11.754;2023-05-10T23:53:45;11.10;99.90
21184;DHT22;18176;49.502;11.754;2023-05-10T23:57:45;11.00;99.90
